WZZ100 EDDS-EDDM
Flight info
| Callsign | WZZ100 |
|---|---|
| Flight time | 0h 30m |
| Altitude | 19000 |
| Route | ABTAL4B/25 ABTAL L173 RIXED Y161 RIDAR Z98 WLD T104 ROKIL ROKIL1B |
| Aircraft | A320/M-SDE3FGHIRWY/LB1 |
Departure
| Time | 2026-05-06 19:28 |
|---|---|
| Airport | Stuttgart Airport (EDDS) |
Arrival
| Time | 2026-05-06 19:58 |
|---|---|
| Airport | Munich Airport (EDDM) |
| Time | Latitude | Longitude | Altitude | Speed | Heading |
|---|---|---|---|---|---|
| 2026-05-06 19:05 | 48.68775 | 9.19560 | 1288 ft | 0 kts | 164° |
| 2026-05-06 19:19 | 48.68773 | 9.19561 | 1289 ft | 1 kts | 160° |
| 2026-05-06 19:19 | 48.68753 | 9.19569 | 1289 ft | 5 kts | 165° |
| 2026-05-06 19:19 | 48.68720 | 9.19610 | 1285 ft | 8 kts | 106° |
| 2026-05-06 19:19 | 48.68729 | 9.19704 | 1285 ft | 11 kts | 76° |
| 2026-05-06 19:20 | 48.68752 | 9.19830 | 1288 ft | 14 kts | 71° |
| 2026-05-06 19:20 | 48.68810 | 9.19963 | 1286 ft | 13 kts | 45° |
| 2026-05-06 19:20 | 48.68849 | 9.20102 | 1286 ft | 16 kts | 73° |
| 2026-05-06 19:20 | 48.68881 | 9.20278 | 1286 ft | 18 kts | 70° |
| 2026-05-06 19:21 | 48.68913 | 9.20439 | 1286 ft | 15 kts | 75° |
| 2026-05-06 19:21 | 48.68945 | 9.20608 | 1286 ft | 18 kts | 72° |
| 2026-05-06 19:21 | 48.68985 | 9.20799 | 1285 ft | 21 kts | 72° |
| 2026-05-06 19:21 | 48.69028 | 9.21027 | 1288 ft | 24 kts | 73° |
| 2026-05-06 19:22 | 48.69069 | 9.21261 | 1286 ft | 21 kts | 75° |
| 2026-05-06 19:22 | 48.69112 | 9.21485 | 1288 ft | 23 kts | 73° |
| 2026-05-06 19:22 | 48.69161 | 9.21732 | 1285 ft | 26 kts | 72° |
| 2026-05-06 19:22 | 48.69213 | 9.22002 | 1286 ft | 28 kts | 75° |
| 2026-05-06 19:23 | 48.69264 | 9.22270 | 1286 ft | 20 kts | 75° |
| 2026-05-06 19:23 | 48.69302 | 9.22475 | 1286 ft | 22 kts | 74° |
| 2026-05-06 19:23 | 48.69347 | 9.22712 | 1286 ft | 25 kts | 75° |
| 2026-05-06 19:23 | 48.69399 | 9.22979 | 1288 ft | 28 kts | 75° |
| 2026-05-06 19:24 | 48.69454 | 9.23274 | 1287 ft | 30 kts | 72° |
| 2026-05-06 19:24 | 48.69509 | 9.23569 | 1287 ft | 25 kts | 75° |
| 2026-05-06 19:24 | 48.69547 | 9.23772 | 1288 ft | 15 kts | 73° |
| 2026-05-06 19:24 | 48.69578 | 9.23923 | 1286 ft | 17 kts | 71° |
| 2026-05-06 19:25 | 48.69606 | 9.24107 | 1286 ft | 16 kts | 84° |
| 2026-05-06 19:25 | 48.69592 | 9.24208 | 1288 ft | 6 kts | 116° |
| 2026-05-06 19:25 | 48.69584 | 9.24229 | 1286 ft | 0 kts | 118° |
| 2026-05-06 19:26 | 48.69583 | 9.24233 | 1286 ft | 2 kts | 118° |
| 2026-05-06 19:26 | 48.69569 | 9.24265 | 1286 ft | 2 kts | 128° |
| 2026-05-06 19:26 | 48.69542 | 9.24290 | 1287 ft | 8 kts | 158° |
| 2026-05-06 19:27 | 48.69440 | 9.24317 | 1285 ft | 23 kts | 192° |
| 2026-05-06 19:27 | 48.69329 | 9.24013 | 1286 ft | 61 kts | 252° |
| 2026-05-06 19:27 | 48.69151 | 9.23125 | 1285 ft | 114 kts | 255° |
| 2026-05-06 19:27 | 48.68899 | 9.21716 | 1293 ft | 160 kts | 256° |
| 2026-05-06 19:28 | 48.68592 | 9.20013 | 1701 ft | 169 kts | 255° |
| 2026-05-06 19:28 | 48.68305 | 9.18330 | 2468 ft | 161 kts | 257° |
| 2026-05-06 19:28 | 48.67938 | 9.16737 | 3061 ft | 162 kts | 248° |
| 2026-05-06 19:28 | 48.67553 | 9.15062 | 3426 ft | 177 kts | 253° |
| 2026-05-06 19:29 | 48.67216 | 9.13243 | 3863 ft | 188 kts | 255° |
| 2026-05-06 19:29 | 48.66856 | 9.11322 | 4518 ft | 191 kts | 254° |
| 2026-05-06 19:29 | 48.66274 | 9.09522 | 4986 ft | 194 kts | 228° |
| 2026-05-06 19:29 | 48.65152 | 9.08474 | 5132 ft | 196 kts | 193° |
| 2026-05-06 19:30 | 48.63797 | 9.08614 | 5146 ft | 197 kts | 157° |
| 2026-05-06 19:30 | 48.62750 | 9.09871 | 5150 ft | 197 kts | 129° |
| 2026-05-06 19:30 | 48.61888 | 9.11490 | 5145 ft | 197 kts | 127° |
| 2026-05-06 19:30 | 48.61374 | 9.13385 | 5150 ft | 205 kts | 94° |
| 2026-05-06 19:31 | 48.61338 | 9.15782 | 5157 ft | 251 kts | 89° |
| 2026-05-06 19:31 | 48.61347 | 9.18587 | 5398 ft | 277 kts | 89° |
| 2026-05-06 19:31 | 48.61341 | 9.24399 | 7441 ft | 279 kts | 90° |
| 2026-05-06 19:32 | 48.61320 | 9.27354 | 8369 ft | 283 kts | 90° |
| 2026-05-06 19:32 | 48.61292 | 9.30337 | 9292 ft | 287 kts | 90° |
| 2026-05-06 19:32 | 48.61260 | 9.33373 | 10189 ft | 291 kts | 91° |
| 2026-05-06 19:32 | 48.61226 | 9.36529 | 10699 ft | 311 kts | 91° |
| 2026-05-06 19:33 | 48.61189 | 9.39868 | 11018 ft | 334 kts | 91° |
| 2026-05-06 19:33 | 48.61150 | 9.43457 | 11614 ft | 345 kts | 91° |
| 2026-05-06 19:33 | 48.61109 | 9.47089 | 12464 ft | 348 kts | 91° |
| 2026-05-06 19:33 | 48.61067 | 9.50771 | 13257 ft | 353 kts | 91° |
| 2026-05-06 19:34 | 48.61022 | 9.54503 | 14032 ft | 357 kts | 91° |
| 2026-05-06 19:34 | 48.60976 | 9.58267 | 14787 ft | 361 kts | 91° |
| 2026-05-06 19:34 | 48.60928 | 9.62098 | 15473 ft | 367 kts | 91° |
| 2026-05-06 19:34 | 48.60879 | 9.65941 | 15858 ft | 370 kts | 91° |
| 2026-05-06 19:35 | 48.60828 | 9.69828 | 15985 ft | 370 kts | 91° |
| 2026-05-06 19:35 | 48.60775 | 9.73722 | 16000 ft | 370 kts | 91° |
| 2026-05-06 19:35 | 48.60723 | 9.77555 | 16000 ft | 369 kts | 91° |
| 2026-05-06 19:35 | 48.60667 | 9.81493 | 16000 ft | 370 kts | 91° |
| 2026-05-06 19:36 | 48.60612 | 9.85317 | 16052 ft | 372 kts | 91° |
| 2026-05-06 19:36 | 48.60554 | 9.89249 | 16578 ft | 375 kts | 91° |
| 2026-05-06 19:36 | 48.60494 | 9.93194 | 17364 ft | 376 kts | 91° |
| 2026-05-06 19:36 | 48.60433 | 9.97160 | 18024 ft | 380 kts | 91° |
| 2026-05-06 19:37 | 48.60370 | 10.01171 | 18645 ft | 385 kts | 91° |
| 2026-05-06 19:37 | 48.60305 | 10.05230 | 18915 ft | 387 kts | 91° |
| 2026-05-06 19:37 | 48.60238 | 10.09299 | 18995 ft | 387 kts | 91° |
| 2026-05-06 19:37 | 48.60193 | 10.11990 | 19000 ft | 387 kts | 91° |
| 2026-05-06 19:38 | 48.60101 | 10.17419 | 19000 ft | 386 kts | 91° |
| 2026-05-06 19:38 | 48.60030 | 10.21481 | 19000 ft | 386 kts | 91° |
| 2026-05-06 19:38 | 48.59957 | 10.25527 | 19000 ft | 386 kts | 92° |
| 2026-05-06 19:38 | 48.59724 | 10.29518 | 19000 ft | 386 kts | 95° |
| 2026-05-06 19:39 | 48.59481 | 10.33551 | 19000 ft | 386 kts | 95° |
| 2026-05-06 19:39 | 48.59239 | 10.37595 | 19000 ft | 386 kts | 95° |
| 2026-05-06 19:39 | 48.58985 | 10.41636 | 19000 ft | 386 kts | 95° |
| 2026-05-06 19:39 | 48.58719 | 10.45662 | 19000 ft | 386 kts | 96° |
| 2026-05-06 19:40 | 48.58445 | 10.49700 | 19000 ft | 386 kts | 96° |
| 2026-05-06 19:40 | 48.58167 | 10.53722 | 19000 ft | 386 kts | 96° |
| 2026-05-06 19:40 | 48.57886 | 10.57757 | 19000 ft | 386 kts | 96° |
| 2026-05-06 19:40 | 48.57603 | 10.61792 | 19000 ft | 386 kts | 96° |
| 2026-05-06 19:41 | 48.57332 | 10.65638 | 19000 ft | 386 kts | 96° |
| 2026-05-06 19:41 | 48.57041 | 10.69757 | 19000 ft | 386 kts | 96° |
| 2026-05-06 19:41 | 48.56755 | 10.73787 | 19000 ft | 386 kts | 96° |
| 2026-05-06 19:41 | 48.56466 | 10.77822 | 19000 ft | 386 kts | 96° |
| 2026-05-06 19:42 | 48.56179 | 10.81835 | 18914 ft | 384 kts | 96° |
| 2026-05-06 19:42 | 48.55890 | 10.85836 | 18579 ft | 382 kts | 96° |
| 2026-05-06 19:42 | 48.55605 | 10.89762 | 18105 ft | 379 kts | 96° |
| 2026-05-06 19:42 | 48.55319 | 10.93700 | 17555 ft | 377 kts | 96° |
| 2026-05-06 19:43 | 48.55031 | 10.97624 | 17013 ft | 374 kts | 96° |
| 2026-05-06 19:43 | 48.54745 | 11.01514 | 16485 ft | 371 kts | 96° |
| 2026-05-06 19:43 | 48.54460 | 11.05376 | 15948 ft | 369 kts | 96° |
| 2026-05-06 19:43 | 48.54176 | 11.09194 | 15433 ft | 365 kts | 96° |
| 2026-05-06 19:44 | 48.53893 | 11.12994 | 14909 ft | 363 kts | 96° |
| 2026-05-06 19:44 | 48.53612 | 11.16751 | 14389 ft | 360 kts | 96° |
| 2026-05-06 19:44 | 48.53331 | 11.20491 | 13872 ft | 357 kts | 96° |
| 2026-05-06 19:44 | 48.53050 | 11.24203 | 13351 ft | 354 kts | 96° |
| 2026-05-06 19:45 | 48.52771 | 11.27876 | 12843 ft | 352 kts | 96° |
| 2026-05-06 19:45 | 48.52497 | 11.31483 | 12341 ft | 349 kts | 96° |
| 2026-05-06 19:45 | 48.52403 | 11.32705 | 12181 ft | 348 kts | 96° |
| 2026-05-06 19:45 | 48.52268 | 11.34468 | 11919 ft | 347 kts | 96° |
| 2026-05-06 19:46 | 48.51991 | 11.38077 | 11433 ft | 344 kts | 96° |
| 2026-05-06 19:46 | 48.51719 | 11.41601 | 11273 ft | 331 kts | 97° |
| 2026-05-06 19:46 | 48.51458 | 11.44972 | 11146 ft | 318 kts | 97° |
| 2026-05-06 19:46 | 48.51200 | 11.48216 | 11009 ft | 305 kts | 97° |
| 2026-05-06 19:47 | 48.50917 | 11.51409 | 10408 ft | 310 kts | 97° |
| 2026-05-06 19:47 | 48.50649 | 11.54593 | 10191 ft | 301 kts | 97° |
| 2026-05-06 19:47 | 48.50384 | 11.57671 | 9972 ft | 293 kts | 97° |
| 2026-05-06 19:47 | 48.50164 | 11.60672 | 9603 ft | 291 kts | 96° |
| 2026-05-06 19:48 | 48.49950 | 11.63738 | 9208 ft | 289 kts | 96° |
| 2026-05-06 19:48 | 48.49734 | 11.66696 | 8825 ft | 287 kts | 96° |
| 2026-05-06 19:48 | 48.49519 | 11.69531 | 8469 ft | 286 kts | 97° |
| 2026-05-06 19:48 | 48.49286 | 11.72497 | 8087 ft | 284 kts | 97° |
| 2026-05-06 19:49 | 48.49051 | 11.75452 | 7709 ft | 283 kts | 97° |
| 2026-05-06 19:49 | 48.48815 | 11.78380 | 7332 ft | 281 kts | 97° |
| 2026-05-06 19:49 | 48.48580 | 11.81301 | 6958 ft | 280 kts | 97° |
| 2026-05-06 19:49 | 48.48345 | 11.84197 | 6580 ft | 278 kts | 97° |
| 2026-05-06 19:50 | 48.48111 | 11.87086 | 6201 ft | 277 kts | 97° |
| 2026-05-06 19:50 | 48.47877 | 11.89955 | 5831 ft | 275 kts | 97° |
| 2026-05-06 19:50 | 48.47647 | 11.92773 | 5465 ft | 273 kts | 97° |
| 2026-05-06 19:50 | 48.47416 | 11.95604 | 5096 ft | 272 kts | 97° |
| 2026-05-06 19:51 | 48.47184 | 11.98429 | 4727 ft | 271 kts | 97° |
| 2026-05-06 19:51 | 48.46953 | 12.01233 | 4356 ft | 269 kts | 97° |
| 2026-05-06 19:51 | 48.46874 | 12.04025 | 4165 ft | 267 kts | 86° |
| 2026-05-06 19:51 | 48.47084 | 12.06822 | 4114 ft | 270 kts | 83° |
| 2026-05-06 19:52 | 48.47239 | 12.09628 | 4115 ft | 268 kts | 94° |
| 2026-05-06 19:52 | 48.46697 | 12.12294 | 4119 ft | 269 kts | 122° |
| 2026-05-06 19:52 | 48.45400 | 12.14269 | 4117 ft | 268 kts | 150° |
| 2026-05-06 19:52 | 48.43667 | 12.15122 | 4127 ft | 267 kts | 173° |
| 2026-05-06 19:53 | 48.41795 | 12.15408 | 4116 ft | 267 kts | 177° |
| 2026-05-06 19:53 | 48.39961 | 12.15497 | 4117 ft | 267 kts | 179° |
| 2026-05-06 19:53 | 48.38166 | 12.14998 | 4117 ft | 265 kts | 209° |
| 2026-05-06 19:53 | 48.36902 | 12.13135 | 4115 ft | 250 kts | 245° |
| 2026-05-06 19:54 | 48.36652 | 12.10686 | 4125 ft | 231 kts | 279° |
| 2026-05-06 19:54 | 48.36972 | 12.08402 | 4112 ft | 215 kts | 283° |
| 2026-05-06 19:54 | 48.37296 | 12.06307 | 4142 ft | 197 kts | 283° |
| 2026-05-06 19:54 | 48.37588 | 12.04261 | 4116 ft | 200 kts | 282° |
| 2026-05-06 19:55 | 48.37840 | 12.02273 | 4116 ft | 189 kts | 279° |
| 2026-05-06 19:55 | 48.37954 | 12.00290 | 3865 ft | 191 kts | 270° |
| 2026-05-06 19:55 | 48.37902 | 11.98339 | 3581 ft | 188 kts | 265° |
| 2026-05-06 19:55 | 48.37777 | 11.96386 | 3341 ft | 185 kts | 264° |
| 2026-05-06 19:56 | 48.37637 | 11.94546 | 3105 ft | 174 kts | 264° |
| 2026-05-06 19:56 | 48.37498 | 11.92714 | 2866 ft | 177 kts | 263° |
| 2026-05-06 19:56 | 48.37358 | 11.90891 | 2629 ft | 172 kts | 263° |
| 2026-05-06 19:56 | 48.37230 | 11.89216 | 2404 ft | 151 kts | 263° |
| 2026-05-06 19:57 | 48.37116 | 11.87726 | 2212 ft | 137 kts | 263° |
| 2026-05-06 19:57 | 48.37010 | 11.86335 | 2043 ft | 135 kts | 263° |
| 2026-05-06 19:57 | 48.36904 | 11.84942 | 1865 ft | 133 kts | 263° |
| 2026-05-06 19:57 | 48.36798 | 11.83558 | 1690 ft | 133 kts | 263° |
| 2026-05-06 19:58 | 48.36693 | 11.82194 | 1518 ft | 133 kts | 263° |
| 2026-05-06 19:58 | 48.36594 | 11.80888 | 1463 ft | 105 kts | 263° |
| 2026-05-06 19:58 | 48.36531 | 11.80055 | 1464 ft | 61 kts | 263° |
| 2026-05-06 19:58 | 48.36497 | 11.79593 | 1457 ft | 27 kts | 262° |
| 2026-05-06 19:59 | 48.36483 | 11.79418 | 1467 ft | 15 kts | 263° |
| 2026-05-06 19:59 | 48.36467 | 11.79242 | 1469 ft | 21 kts | 260° |
| 2026-05-06 19:59 | 48.36415 | 11.78973 | 1463 ft | 27 kts | 242° |
| 2026-05-06 19:59 | 48.36302 | 11.78708 | 1466 ft | 33 kts | 232° |
| 2026-05-06 20:00 | 48.36226 | 11.78556 | 1465 ft | 0 kts | 233° |
| 2026-05-06 20:00 | 48.36195 | 11.78495 | 1465 ft | 16 kts | 231° |
| 2026-05-06 20:01 | 48.36144 | 11.78383 | 1463 ft | 8 kts | 245° |
| 2026-05-06 20:01 | 48.36118 | 11.78219 | 1466 ft | 23 kts | 263° |
| 2026-05-06 20:01 | 48.36098 | 11.77957 | 1463 ft | 19 kts | 263° |
| 2026-05-06 20:01 | 48.36093 | 11.77882 | 1463 ft | 11 kts | 263° |
| 2026-05-06 20:02 | 48.36080 | 11.77730 | 1466 ft | 10 kts | 259° |
| 2026-05-06 20:02 | 48.36059 | 11.77679 | 1463 ft | 11 kts | 218° |
| 2026-05-06 20:02 | 48.35965 | 11.77672 | 1463 ft | 16 kts | 173° |
| 2026-05-06 20:02 | 48.35817 | 11.77700 | 1458 ft | 20 kts | 174° |
| 2026-05-06 20:03 | 48.35682 | 11.77681 | 1463 ft | 19 kts | 176° |
| 2026-05-06 20:03 | 48.35538 | 11.77706 | 1463 ft | 26 kts | 172° |
| 2026-05-06 20:03 | 48.35428 | 11.77724 | 1462 ft | 1 kts | 166° |
| 2026-05-06 20:03 | 48.35423 | 11.77726 | 1463 ft | 3 kts | 166° |
| 2026-05-06 20:04 | 48.35411 | 11.77729 | 1463 ft | 2 kts | 169° |
| 2026-05-06 20:04 | 48.35386 | 11.77733 | 1459 ft | 5 kts | 179° |
| 2026-05-06 20:04 | 48.35376 | 11.77707 | 1463 ft | 4 kts | 245° |
| 2026-05-06 20:04 | 48.35373 | 11.77681 | 1464 ft | 1 kts | 265° |
| 2026-05-06 20:05 | 48.35372 | 11.77668 | 1461 ft | 0 kts | 264° |